sensor_id;sensor_type;location;lat;lon;timestamp;temperature;humidity
31379;DHT22;61664;48.112;11.662;2023-04-24T00:01:56;12.80;84.10
31379;DHT22;61664;48.112;11.662;2023-04-24T00:04:24;12.80;84.30
31379;DHT22;61664;48.112;11.662;2023-04-24T00:06:52;12.80;84.60
31379;DHT22;61664;48.112;11.662;2023-04-24T00:09:23;12.80;84.60
31379;DHT22;61664;48.112;11.662;2023-04-24T00:11:50;12.80;85.10
31379;DHT22;61664;48.112;11.662;2023-04-24T00:14:18;12.80;85.20
31379;DHT22;61664;48.112;11.662;2023-04-24T00:16:45;12.80;85.20
31379;DHT22;61664;48.112;11.662;2023-04-24T00:19:12;12.70;85.10
31379;DHT22;61664;48.112;11.662;2023-04-24T00:21:40;12.80;85.20
31379;DHT22;61664;48.112;11.662;2023-04-24T00:24:08;12.70;85.00
31379;DHT22;61664;48.112;11.662;2023-04-24T00:26:37;12.70;85.20
31379;DHT22;61664;48.112;11.662;2023-04-24T00:29:04;12.70;85.20
31379;DHT22;61664;48.112;11.662;2023-04-24T00:31:31;12.80;85.10
31379;DHT22;61664;48.112;11.662;2023-04-24T00:34:02;12.70;85.20
31379;DHT22;61664;48.112;11.662;2023-04-24T00:36:29;12.70;85.40
31379;DHT22;61664;48.112;11.662;2023-04-24T00:38:57;12.70;85.50
31379;DHT22;61664;48.112;11.662;2023-04-24T00:41:27;12.70;85.50
31379;DHT22;61664;48.112;11.662;2023-04-24T00:43:54;12.80;85.00
31379;DHT22;61664;48.112;11.662;2023-04-24T00:46:21;12.70;85.00
31379;DHT22;61664;48.112;11.662;2023-04-24T00:48:48;12.70;85.20
31379;DHT22;61664;48.112;11.662;2023-04-24T00:51:16;12.70;85.20
31379;DHT22;61664;48.112;11.662;2023-04-24T00:53:43;12.70;85.00
31379;DHT22;61664;48.112;11.662;2023-04-24T00:56:10;12.60;85.10
31379;DHT22;61664;48.112;11.662;2023-04-24T00:58:37;12.60;84.50
31379;DHT22;61664;48.112;11.662;2023-04-24T01:01:05;12.60;84.50
31379;DHT22;61664;48.112;11.662;2023-04-24T01:03:34;12.70;84.70
31379;DHT22;61664;48.112;11.662;2023-04-24T01:06:04;12.60;84.40
31379;DHT22;61664;48.112;11.662;2023-04-24T01:08:32;12.60;84.50
31379;DHT22;61664;48.112;11.662;2023-04-24T01:11:03;12.60;84.20
31379;DHT22;61664;48.112;11.662;2023-04-24T01:13:31;12.50;83.60
31379;DHT22;61664;48.112;11.662;2023-04-24T01:16:00;12.50;83.90
31379;DHT22;61664;48.112;11.662;2023-04-24T01:18:28;12.40;83.90
31379;DHT22;61664;48.112;11.662;2023-04-24T01:20:58;12.40;84.00
31379;DHT22;61664;48.112;11.662;2023-04-24T01:23:26;12.40;83.70
31379;DHT22;61664;48.112;11.662;2023-04-24T01:25:53;12.40;84.40
31379;DHT22;61664;48.112;11.662;2023-04-24T01:28:21;12.30;84.30
31379;DHT22;61664;48.112;11.662;2023-04-24T01:30:48;12.30;84.30
31379;DHT22;61664;48.112;11.662;2023-04-24T01:33:15;12.30;84.70
31379;DHT22;61664;48.112;11.662;2023-04-24T01:35:43;12.30;84.70
31379;DHT22;61664;48.112;11.662;2023-04-24T01:38:10;12.30;84.50
31379;DHT22;61664;48.112;11.662;2023-04-24T01:40:37;12.30;84.30
31379;DHT22;61664;48.112;11.662;2023-04-24T01:43:05;12.30;84.20
31379;DHT22;61664;48.112;11.662;2023-04-24T01:45:32;12.30;84.20
31379;DHT22;61664;48.112;11.662;2023-04-24T01:48:00;12.30;84.00
31379;DHT22;61664;48.112;11.662;2023-04-24T01:50:27;12.20;83.50
31379;DHT22;61664;48.112;11.662;2023-04-24T01:52:54;12.20;83.60
31379;DHT22;61664;48.112;11.662;2023-04-24T01:55:21;12.20;83.70
31379;DHT22;61664;48.112;11.662;2023-04-24T01:57:49;12.20;83.90
31379;DHT22;61664;48.112;11.662;2023-04-24T02:00:16;12.10;83.90
31379;DHT22;61664;48.112;11.662;2023-04-24T02:02:44;12.10;83.90
31379;DHT22;61664;48.112;11.662;2023-04-24T02:05:14;12.10;83.90
31379;DHT22;61664;48.112;11.662;2023-04-24T02:07:41;12.10;84.00
31379;DHT22;61664;48.112;11.662;2023-04-24T02:10:08;12.10;84.30
31379;DHT22;61664;48.112;11.662;2023-04-24T02:12:36;12.10;84.40
31379;DHT22;61664;48.112;11.662;2023-04-24T02:15:03;12.10;84.10
31379;DHT22;61664;48.112;11.662;2023-04-24T02:17:31;12.10;84.00
31379;DHT22;61664;48.112;11.662;2023-04-24T02:19:58;12.10;84.00
31379;DHT22;61664;48.112;11.662;2023-04-24T02:22:24;12.10;84.10
31379;DHT22;61664;48.112;11.662;2023-04-24T02:24:51;12.00;84.10
31379;DHT22;61664;48.112;11.662;2023-04-24T02:27:18;12.00;84.10
31379;DHT22;61664;48.112;11.662;2023-04-24T02:29:45;12.00;83.70
31379;DHT22;61664;48.112;11.662;2023-04-24T02:32:12;12.00;83.70
31379;DHT22;61664;48.112;11.662;2023-04-24T02:34:39;12.00;83.70
31379;DHT22;61664;48.112;11.662;2023-04-24T02:37:06;12.00;83.90
31379;DHT22;61664;48.112;11.662;2023-04-24T02:39:33;11.90;83.90
31379;DHT22;61664;48.112;11.662;2023-04-24T02:42:00;12.10;84.20
31379;DHT22;61664;48.112;11.662;2023-04-24T02:44:28;12.10;84.10
31379;DHT22;61664;48.112;11.662;2023-04-24T02:46:54;12.00;83.80
31379;DHT22;61664;48.112;11.662;2023-04-24T02:49:21;11.90;83.90
31379;DHT22;61664;48.112;11.662;2023-04-24T02:51:48;11.90;84.00
31379;DHT22;61664;48.112;11.662;2023-04-24T02:54:15;12.00;83.90
31379;DHT22;61664;48.112;11.662;2023-04-24T02:56:42;11.90;83.70
31379;DHT22;61664;48.112;11.662;2023-04-24T02:59:09;12.00;83.50
31379;DHT22;61664;48.112;11.662;2023-04-24T03:01:36;11.90;83.70
31379;DHT22;61664;48.112;11.662;2023-04-24T03:04:03;11.90;83.50
31379;DHT22;61664;48.112;11.662;2023-04-24T03:06:31;11.90;83.60
31379;DHT22;61664;48.112;11.662;2023-04-24T03:08:59;11.80;83.00
31379;DHT22;61664;48.112;11.662;2023-04-24T03:11:26;11.90;83.20
31379;DHT22;61664;48.112;11.662;2023-04-24T03:13:53;11.80;83.30
31379;DHT22;61664;48.112;11.662;2023-04-24T03:16:20;11.80;83.70
31379;DHT22;61664;48.112;11.662;2023-04-24T03:18:47;11.70;83.80
31379;DHT22;61664;48.112;11.662;2023-04-24T03:21:13;11.70;83.70
31379;DHT22;61664;48.112;11.662;2023-04-24T03:23:40;11.80;83.80
31379;DHT22;61664;48.112;11.662;2023-04-24T03:26:07;11.80;84.00
31379;DHT22;61664;48.112;11.662;2023-04-24T03:28:34;11.70;84.10
31379;DHT22;61664;48.112;11.662;2023-04-24T03:31:02;11.70;84.50
31379;DHT22;61664;48.112;11.662;2023-04-24T03:33:30;11.70;84.50
31379;DHT22;61664;48.112;11.662;2023-04-24T03:35:56;11.80;84.70
31379;DHT22;61664;48.112;11.662;2023-04-24T03:38:23;11.70;84.50
31379;DHT22;61664;48.112;11.662;2023-04-24T03:40:50;11.60;84.70
31379;DHT22;61664;48.112;11.662;2023-04-24T03:43:17;11.70;84.80
31379;DHT22;61664;48.112;11.662;2023-04-24T03:45:44;11.60;84.50
31379;DHT22;61664;48.112;11.662;2023-04-24T03:48:11;11.60;84.60
31379;DHT22;61664;48.112;11.662;2023-04-24T03:50:38;11.60;84.70
31379;DHT22;61664;48.112;11.662;2023-04-24T03:53:04;11.60;84.90
31379;DHT22;61664;48.112;11.662;2023-04-24T03:55:31;11.60;85.20
31379;DHT22;61664;48.112;11.662;2023-04-24T03:57:58;11.60;85.20
31379;DHT22;61664;48.112;11.662;2023-04-24T04:00:25;11.60;85.30
31379;DHT22;61664;48.112;11.662;2023-04-24T04:02:52;11.60;85.30
31379;DHT22;61664;48.112;11.662;2023-04-24T04:05:20;11.50;85.20
31379;DHT22;61664;48.112;11.662;2023-04-24T04:07:47;11.60;85.50
31379;DHT22;61664;48.112;11.662;2023-04-24T04:10:14;11.50;85.70
31379;DHT22;61664;48.112;11.662;2023-04-24T04:12:40;11.60;85.90
31379;DHT22;61664;48.112;11.662;2023-04-24T04:15:07;11.60;85.70
31379;DHT22;61664;48.112;11.662;2023-04-24T04:17:35;11.60;85.70
31379;DHT22;61664;48.112;11.662;2023-04-24T04:20:02;11.60;85.50
31379;DHT22;61664;48.112;11.662;2023-04-24T04:22:33;11.60;85.50
31379;DHT22;61664;48.112;11.662;2023-04-24T04:25:00;11.60;85.80
31379;DHT22;61664;48.112;11.662;2023-04-24T04:27:27;11.60;85.90
31379;DHT22;61664;48.112;11.662;2023-04-24T04:29:55;11.60;85.80
31379;DHT22;61664;48.112;11.662;2023-04-24T04:32:23;11.60;85.70
31379;DHT22;61664;48.112;11.662;2023-04-24T04:34:49;11.50;85.90
31379;DHT22;61664;48.112;11.662;2023-04-24T04:37:19;11.60;85.80
31379;DHT22;61664;48.112;11.662;2023-04-24T04:39:47;11.60;85.90
31379;DHT22;61664;48.112;11.662;2023-04-24T04:42:14;11.60;85.90
31379;DHT22;61664;48.112;11.662;2023-04-24T04:44:41;11.60;85.90
31379;DHT22;61664;48.112;11.662;2023-04-24T04:47:09;11.60;86.10
31379;DHT22;61664;48.112;11.662;2023-04-24T04:49:38;11.60;86.80
31379;DHT22;61664;48.112;11.662;2023-04-24T04:52:05;11.60;86.20
31379;DHT22;61664;48.112;11.662;2023-04-24T04:54:32;11.70;86.10
31379;DHT22;61664;48.112;11.662;2023-04-24T04:56:59;11.60;86.00
31379;DHT22;61664;48.112;11.662;2023-04-24T04:59:29;11.70;86.20
31379;DHT22;61664;48.112;11.662;2023-04-24T05:01:56;11.70;85.80
31379;DHT22;61664;48.112;11.662;2023-04-24T05:04:23;11.70;86.60
31379;DHT22;61664;48.112;11.662;2023-04-24T05:06:50;11.70;87.00
31379;DHT22;61664;48.112;11.662;2023-04-24T05:09:18;11.80;87.20
31379;DHT22;61664;48.112;11.662;2023-04-24T05:11:45;11.80;87.00
31379;DHT22;61664;48.112;11.662;2023-04-24T05:14:12;11.80;87.10
31379;DHT22;61664;48.112;11.662;2023-04-24T05:16:42;11.80;86.90
31379;DHT22;61664;48.112;11.662;2023-04-24T05:19:08;11.90;87.00
31379;DHT22;61664;48.112;11.662;2023-04-24T05:21:35;11.90;86.70
31379;DHT22;61664;48.112;11.662;2023-04-24T05:24:02;12.00;86.30
31379;DHT22;61664;48.112;11.662;2023-04-24T05:26:29;12.00;85.70
31379;DHT22;61664;48.112;11.662;2023-04-24T05:28:57;12.00;85.60
31379;DHT22;61664;48.112;11.662;2023-04-24T05:31:23;12.00;85.50
31379;DHT22;61664;48.112;11.662;2023-04-24T05:33:51;12.00;85.30
31379;DHT22;61664;48.112;11.662;2023-04-24T05:36:18;12.00;85.20
31379;DHT22;61664;48.112;11.662;2023-04-24T05:38:46;11.90;85.20
31379;DHT22;61664;48.112;11.662;2023-04-24T05:41:12;12.00;85.70
31379;DHT22;61664;48.112;11.662;2023-04-24T05:43:39;12.00;86.00
31379;DHT22;61664;48.112;11.662;2023-04-24T05:46:06;12.00;85.80
31379;DHT22;61664;48.112;11.662;2023-04-24T05:48:33;12.00;86.10
31379;DHT22;61664;48.112;11.662;2023-04-24T05:51:00;12.00;86.50
31379;DHT22;61664;48.112;11.662;2023-04-24T05:53:27;12.10;86.00
31379;DHT22;61664;48.112;11.662;2023-04-24T05:55:53;12.10;85.70
31379;DHT22;61664;48.112;11.662;2023-04-24T05:58:20;12.10;85.40
31379;DHT22;61664;48.112;11.662;2023-04-24T06:00:47;12.10;85.30
31379;DHT22;61664;48.112;11.662;2023-04-24T06:03:14;12.10;85.60
31379;DHT22;61664;48.112;11.662;2023-04-24T06:05:41;12.10;85.70
31379;DHT22;61664;48.112;11.662;2023-04-24T06:08:09;12.10;85.60
31379;DHT22;61664;48.112;11.662;2023-04-24T06:10:36;12.10;86.40
31379;DHT22;61664;48.112;11.662;2023-04-24T06:13:03;12.20;86.70
31379;DHT22;61664;48.112;11.662;2023-04-24T06:15:30;12.30;86.30
31379;DHT22;61664;48.112;11.662;2023-04-24T06:17:57;12.20;85.80
31379;DHT22;61664;48.112;11.662;2023-04-24T06:20:25;12.30;85.70
31379;DHT22;61664;48.112;11.662;2023-04-24T06:22:52;12.30;85.70
31379;DHT22;61664;48.112;11.662;2023-04-24T06:25:19;12.40;85.90
31379;DHT22;61664;48.112;11.662;2023-04-24T06:27:46;12.40;85.60
31379;DHT22;61664;48.112;11.662;2023-04-24T06:30:13;12.50;86.10
31379;DHT22;61664;48.112;11.662;2023-04-24T06:32:40;12.50;85.70
31379;DHT22;61664;48.112;11.662;2023-04-24T06:35:07;12.60;85.50
31379;DHT22;61664;48.112;11.662;2023-04-24T06:37:36;12.50;85.40
31379;DHT22;61664;48.112;11.662;2023-04-24T06:40:03;12.60;85.40
31379;DHT22;61664;48.112;11.662;2023-04-24T06:42:34;12.60;85.80
31379;DHT22;61664;48.112;11.662;2023-04-24T06:45:02;12.70;85.90
31379;DHT22;61664;48.112;11.662;2023-04-24T06:47:29;12.70;85.20
31379;DHT22;61664;48.112;11.662;2023-04-24T06:49:56;12.70;85.20
31379;DHT22;61664;48.112;11.662;2023-04-24T06:52:23;12.70;85.00
31379;DHT22;61664;48.112;11.662;2023-04-24T06:54:50;12.80;85.60
31379;DHT22;61664;48.112;11.662;2023-04-24T06:57:18;12.80;85.80
31379;DHT22;61664;48.112;11.662;2023-04-24T07:00:07;12.90;86.00
31379;DHT22;61664;48.112;11.662;2023-04-24T07:02:36;13.00;86.10
31379;DHT22;61664;48.112;11.662;2023-04-24T07:05:05;13.10;86.20
31379;DHT22;61664;48.112;11.662;2023-04-24T07:07:32;13.10;86.50
31379;DHT22;61664;48.112;11.662;2023-04-24T07:09:58;13.20;86.80
31379;DHT22;61664;48.112;11.662;2023-04-24T07:12:25;13.30;86.60
31379;DHT22;61664;48.112;11.662;2023-04-24T07:14:52;13.40;85.60
31379;DHT22;61664;48.112;11.662;2023-04-24T07:17:19;13.50;85.00
31379;DHT22;61664;48.112;11.662;2023-04-24T07:19:46;13.60;84.80
31379;DHT22;61664;48.112;11.662;2023-04-24T07:22:13;13.60;84.90
31379;DHT22;61664;48.112;11.662;2023-04-24T07:24:44;13.70;85.10
31379;DHT22;61664;48.112;11.662;2023-04-24T07:27:11;13.70;85.30
31379;DHT22;61664;48.112;11.662;2023-04-24T07:29:38;13.80;84.40
31379;DHT22;61664;48.112;11.662;2023-04-24T07:32:07;13.90;84.20
31379;DHT22;61664;48.112;11.662;2023-04-24T07:34:34;14.00;85.10
31379;DHT22;61664;48.112;11.662;2023-04-24T07:37:01;14.10;85.30
31379;DHT22;61664;48.112;11.662;2023-04-24T07:39:28;14.30;84.30
31379;DHT22;61664;48.112;11.662;2023-04-24T07:41:55;14.40;84.80
31379;DHT22;61664;48.112;11.662;2023-04-24T07:44:22;14.50;82.60
31379;DHT22;61664;48.112;11.662;2023-04-24T07:46:49;14.50;80.30
31379;DHT22;61664;48.112;11.662;2023-04-24T07:49:16;14.50;80.60
31379;DHT22;61664;48.112;11.662;2023-04-24T07:51:45;14.50;80.10
31379;DHT22;61664;48.112;11.662;2023-04-24T07:54:12;14.50;79.10
31379;DHT22;61664;48.112;11.662;2023-04-24T07:56:40;14.40;79.40
31379;DHT22;61664;48.112;11.662;2023-04-24T07:59:10;14.40;79.60
31379;DHT22;61664;48.112;11.662;2023-04-24T08:01:37;14.40;79.00
31379;DHT22;61664;48.112;11.662;2023-04-24T08:04:04;14.40;78.80
31379;DHT22;61664;48.112;11.662;2023-04-24T08:06:32;14.30;78.90
31379;DHT22;61664;48.112;11.662;2023-04-24T08:09:00;14.40;78.50
31379;DHT22;61664;48.112;11.662;2023-04-24T08:11:27;14.30;78.00
31379;DHT22;61664;48.112;11.662;2023-04-24T08:13:54;14.20;77.70
31379;DHT22;61664;48.112;11.662;2023-04-24T08:16:21;14.20;78.10
31379;DHT22;61664;48.112;11.662;2023-04-24T08:18:51;14.20;79.40
31379;DHT22;61664;48.112;11.662;2023-04-24T08:21:18;14.20;80.30
31379;DHT22;61664;48.112;11.662;2023-04-24T08:23:45;14.30;79.60
31379;DHT22;61664;48.112;11.662;2023-04-24T08:26:13;14.30;79.10
31379;DHT22;61664;48.112;11.662;2023-04-24T08:28:40;14.30;78.90
31379;DHT22;61664;48.112;11.662;2023-04-24T08:31:06;14.40;79.60
31379;DHT22;61664;48.112;11.662;2023-04-24T08:33:33;14.50;79.80
31379;DHT22;61664;48.112;11.662;2023-04-24T08:36:05;14.50;79.50
31379;DHT22;61664;48.112;11.662;2023-04-24T08:38:33;14.50;77.20
31379;DHT22;61664;48.112;11.662;2023-04-24T08:41:01;14.50;77.80
31379;DHT22;61664;48.112;11.662;2023-04-24T08:43:28;14.40;77.20
31379;DHT22;61664;48.112;11.662;2023-04-24T08:45:56;14.40;76.60
31379;DHT22;61664;48.112;11.662;2023-04-24T08:48:24;14.30;75.80
31379;DHT22;61664;48.112;11.662;2023-04-24T08:50:58;14.20;74.50
31379;DHT22;61664;48.112;11.662;2023-04-24T08:53:26;14.00;74.00
31379;DHT22;61664;48.112;11.662;2023-04-24T08:55:55;13.80;74.80
31379;DHT22;61664;48.112;11.662;2023-04-24T08:58:25;13.60;75.70
31379;DHT22;61664;48.112;11.662;2023-04-24T09:00:56;13.40;76.50
31379;DHT22;61664;48.112;11.662;2023-04-24T09:03:24;13.30;77.40
31379;DHT22;61664;48.112;11.662;2023-04-24T09:05:55;13.20;80.10
31379;DHT22;61664;48.112;11.662;2023-04-24T09:08:25;13.10;79.40
31379;DHT22;61664;48.112;11.662;2023-04-24T09:10:52;13.10;77.00
31379;DHT22;61664;48.112;11.662;2023-04-24T09:13:20;13.00;76.60
31379;DHT22;61664;48.112;11.662;2023-04-24T09:15:47;12.90;77.10
31379;DHT22;61664;48.112;11.662;2023-04-24T09:18:14;12.80;78.40
31379;DHT22;61664;48.112;11.662;2023-04-24T09:21:01;12.70;79.90
31379;DHT22;61664;48.112;11.662;2023-04-24T09:23:31;12.70;71.70
31379;DHT22;61664;48.112;11.662;2023-04-24T09:26:00;12.70;79.80
31379;DHT22;61664;48.112;11.662;2023-04-24T09:28:33;12.70;79.70
31379;DHT22;61664;48.112;11.662;2023-04-24T09:31:08;12.70;78.20
31379;DHT22;61664;48.112;11.662;2023-04-24T09:34:02;12.80;78.20
31379;DHT22;61664;48.112;11.662;2023-04-24T09:36:39;12.80;71.10
31379;DHT22;61664;48.112;11.662;2023-04-24T09:39:13;12.90;79.30
31379;DHT22;61664;48.112;11.662;2023-04-24T09:41:54;12.90;80.50
31379;DHT22;61664;48.112;11.662;2023-04-24T09:44:27;13.00;79.80
31379;DHT22;61664;48.112;11.662;2023-04-24T09:46:56;13.10;83.90
31379;DHT22;61664;48.112;11.662;2023-04-24T09:49:33;13.20;83.60
31379;DHT22;61664;48.112;11.662;2023-04-24T09:52:04;13.40;84.20
31379;DHT22;61664;48.112;11.662;2023-04-24T09:54:33;13.60;83.90
31379;DHT22;61664;48.112;11.662;2023-04-24T09:57:00;13.80;83.30
31379;DHT22;61664;48.112;11.662;2023-04-24T09:59:28;14.00;83.50
31379;DHT22;61664;48.112;11.662;2023-04-24T10:01:55;14.10;81.20
31379;DHT22;61664;48.112;11.662;2023-04-24T10:04:25;14.20;81.70
31379;DHT22;61664;48.112;11.662;2023-04-24T10:06:56;14.30;80.10
31379;DHT22;61664;48.112;11.662;2023-04-24T10:09:25;14.40;81.50
31379;DHT22;61664;48.112;11.662;2023-04-24T10:11:54;14.60;81.30
31379;DHT22;61664;48.112;11.662;2023-04-24T10:14:23;14.70;80.00
31379;DHT22;61664;48.112;11.662;2023-04-24T10:16:53;14.80;79.20
31379;DHT22;61664;48.112;11.662;2023-04-24T10:19:25;14.80;77.70
31379;DHT22;61664;48.112;11.662;2023-04-24T10:21:53;14.90;78.40
31379;DHT22;61664;48.112;11.662;2023-04-24T10:24:22;15.10;81.90
31379;DHT22;61664;48.112;11.662;2023-04-24T10:26:49;15.20;80.60
31379;DHT22;61664;48.112;11.662;2023-04-24T10:29:18;15.30;82.00
31379;DHT22;61664;48.112;11.662;2023-04-24T10:31:46;15.50;79.10
31379;DHT22;61664;48.112;11.662;2023-04-24T10:34:15;15.60;78.10
31379;DHT22;61664;48.112;11.662;2023-04-24T10:36:51;15.70;77.40
31379;DHT22;61664;48.112;11.662;2023-04-24T10:39:22;15.80;73.40
31379;DHT22;61664;48.112;11.662;2023-04-24T10:41:54;15.80;79.40
31379;DHT22;61664;48.112;11.662;2023-04-24T10:44:24;15.90;78.90
31379;DHT22;61664;48.112;11.662;2023-04-24T10:46:55;16.00;79.30
31379;DHT22;61664;48.112;11.662;2023-04-24T10:49:29;16.10;73.80
31379;DHT22;61664;48.112;11.662;2023-04-24T10:52:02;16.00;70.90
31379;DHT22;61664;48.112;11.662;2023-04-24T10:54:45;16.00;69.20
31379;DHT22;61664;48.112;11.662;2023-04-24T10:59:51;15.80;66.70
31379;DHT22;61664;48.112;11.662;2023-04-24T11:02:37;15.70;72.40
31379;DHT22;61664;48.112;11.662;2023-04-24T11:05:06;15.50;69.60
31379;DHT22;61664;48.112;11.662;2023-04-24T11:08:13;15.30;62.30
31379;DHT22;61664;48.112;11.662;2023-04-24T11:13:16;14.30;69.50
31379;DHT22;61664;48.112;11.662;2023-04-24T11:15:43;13.90;71.10
31379;DHT22;61664;48.112;11.662;2023-04-24T11:18:16;13.60;74.60
31379;DHT22;61664;48.112;11.662;2023-04-24T11:20:44;13.40;75.20
31379;DHT22;61664;48.112;11.662;2023-04-24T11:23:12;13.30;79.50
31379;DHT22;61664;48.112;11.662;2023-04-24T11:25:41;13.30;80.40
31379;DHT22;61664;48.112;11.662;2023-04-24T11:28:14;13.30;80.30
31379;DHT22;61664;48.112;11.662;2023-04-24T11:30:42;13.40;79.60
31379;DHT22;61664;48.112;11.662;2023-04-24T11:33:09;13.40;83.50
31379;DHT22;61664;48.112;11.662;2023-04-24T11:35:40;13.60;85.30
31379;DHT22;61664;48.112;11.662;2023-04-24T11:38:07;13.80;83.90
31379;DHT22;61664;48.112;11.662;2023-04-24T11:40:38;14.00;85.20
31379;DHT22;61664;48.112;11.662;2023-04-24T11:43:06;14.10;83.00
31379;DHT22;61664;48.112;11.662;2023-04-24T11:45:34;14.30;83.60
31379;DHT22;61664;48.112;11.662;2023-04-24T11:48:03;14.40;81.90
31379;DHT22;61664;48.112;11.662;2023-04-24T11:50:30;14.50;79.80
31379;DHT22;61664;48.112;11.662;2023-04-24T11:52:57;14.50;80.40
31379;DHT22;61664;48.112;11.662;2023-04-24T11:55:27;14.60;80.80
31379;DHT22;61664;48.112;11.662;2023-04-24T11:57:57;14.60;81.00
31379;DHT22;61664;48.112;11.662;2023-04-24T12:00:29;14.70;82.80
31379;DHT22;61664;48.112;11.662;2023-04-24T12:03:08;14.80;83.40
31379;DHT22;61664;48.112;11.662;2023-04-24T12:05:38;14.90;72.80
31379;DHT22;61664;48.112;11.662;2023-04-24T12:08:06;15.00;80.30
31379;DHT22;61664;48.112;11.662;2023-04-24T12:10:35;15.00;79.40
31379;DHT22;61664;48.112;11.662;2023-04-24T12:13:02;15.00;77.20
31379;DHT22;61664;48.112;11.662;2023-04-24T12:15:29;14.90;75.20
31379;DHT22;61664;48.112;11.662;2023-04-24T12:17:57;14.80;77.00
31379;DHT22;61664;48.112;11.662;2023-04-24T12:20:29;14.70;78.00
31379;DHT22;61664;48.112;11.662;2023-04-24T12:23:01;14.60;75.80
31379;DHT22;61664;48.112;11.662;2023-04-24T12:25:30;14.70;77.50
31379;DHT22;61664;48.112;11.662;2023-04-24T12:30:33;14.70;71.30
31379;DHT22;61664;48.112;11.662;2023-04-24T12:33:02;14.70;77.00
31379;DHT22;61664;48.112;11.662;2023-04-24T12:35:31;14.80;77.60
31379;DHT22;61664;48.112;11.662;2023-04-24T12:38:07;14.80;77.60
31379;DHT22;61664;48.112;11.662;2023-04-24T12:40:35;14.90;73.60
31379;DHT22;61664;48.112;11.662;2023-04-24T12:43:12;14.90;79.60
31379;DHT22;61664;48.112;11.662;2023-04-24T12:45:42;15.10;80.20
31379;DHT22;61664;48.112;11.662;2023-04-24T12:48:09;15.20;80.40
31379;DHT22;61664;48.112;11.662;2023-04-24T12:50:36;15.40;79.70
31379;DHT22;61664;48.112;11.662;2023-04-24T12:53:04;15.50;79.80
31379;DHT22;61664;48.112;11.662;2023-04-24T12:55:31;15.70;78.10
31379;DHT22;61664;48.112;11.662;2023-04-24T12:57:57;15.70;76.90
31379;DHT22;61664;48.112;11.662;2023-04-24T13:00:24;15.70;75.60
31379;DHT22;61664;48.112;11.662;2023-04-24T13:02:51;15.70;75.10
31379;DHT22;61664;48.112;11.662;2023-04-24T13:05:18;15.70;76.50
31379;DHT22;61664;48.112;11.662;2023-04-24T13:07:45;15.80;75.60
31379;DHT22;61664;48.112;11.662;2023-04-24T13:10:12;15.70;75.70
31379;DHT22;61664;48.112;11.662;2023-04-24T13:12:40;15.80;76.70
31379;DHT22;61664;48.112;11.662;2023-04-24T13:15:07;15.80;75.20
31379;DHT22;61664;48.112;11.662;2023-04-24T13:17:34;15.90;74.80
31379;DHT22;61664;48.112;11.662;2023-04-24T13:20:01;15.90;74.60
31379;DHT22;61664;48.112;11.662;2023-04-24T13:22:29;16.00;76.00
31379;DHT22;61664;48.112;11.662;2023-04-24T13:24:56;16.10;76.30
31379;DHT22;61664;48.112;11.662;2023-04-24T13:27:23;16.20;75.30
31379;DHT22;61664;48.112;11.662;2023-04-24T13:29:50;16.30;73.70
31379;DHT22;61664;48.112;11.662;2023-04-24T13:32:17;16.30;71.80
31379;DHT22;61664;48.112;11.662;2023-04-24T13:34:44;16.20;71.90
31379;DHT22;61664;48.112;11.662;2023-04-24T13:37:12;16.20;69.90
31379;DHT22;61664;48.112;11.662;2023-04-24T13:39:40;16.00;69.40
31379;DHT22;61664;48.112;11.662;2023-04-24T13:42:08;15.90;69.60
31379;DHT22;61664;48.112;11.662;2023-04-24T13:44:35;15.80;70.30
31379;DHT22;61664;48.112;11.662;2023-04-24T13:47:02;15.80;73.70
31379;DHT22;61664;48.112;11.662;2023-04-24T13:49:29;15.90;75.90
31379;DHT22;61664;48.112;11.662;2023-04-24T13:51:56;16.10;73.00
31379;DHT22;61664;48.112;11.662;2023-04-24T13:54:23;16.20;72.90
31379;DHT22;61664;48.112;11.662;2023-04-24T13:56:52;16.30;72.50
31379;DHT22;61664;48.112;11.662;2023-04-24T13:59:20;16.40;72.70
31379;DHT22;61664;48.112;11.662;2023-04-24T14:01:48;16.50;72.90
31379;DHT22;61664;48.112;11.662;2023-04-24T14:04:15;16.60;71.60
31379;DHT22;61664;48.112;11.662;2023-04-24T14:06:43;16.60;72.30
31379;DHT22;61664;48.112;11.662;2023-04-24T14:09:10;16.60;69.80
31379;DHT22;61664;48.112;11.662;2023-04-24T14:11:37;16.60;69.70
31379;DHT22;61664;48.112;11.662;2023-04-24T14:14:05;16.60;69.90
31379;DHT22;61664;48.112;11.662;2023-04-24T14:16:32;16.50;70.20
31379;DHT22;61664;48.112;11.662;2023-04-24T14:18:59;16.50;69.40
31379;DHT22;61664;48.112;11.662;2023-04-24T14:21:26;16.50;71.70
31379;DHT22;61664;48.112;11.662;2023-04-24T14:23:53;16.70;74.60
31379;DHT22;61664;48.112;11.662;2023-04-24T14:26:19;16.90;72.10
31379;DHT22;61664;48.112;11.662;2023-04-24T14:28:46;17.10;71.60
31379;DHT22;61664;48.112;11.662;2023-04-24T14:31:13;17.20;70.70
31379;DHT22;61664;48.112;11.662;2023-04-24T14:33:40;17.20;70.10
31379;DHT22;61664;48.112;11.662;2023-04-24T14:36:07;17.30;72.10
31379;DHT22;61664;48.112;11.662;2023-04-24T14:38:34;17.40;71.70
31379;DHT22;61664;48.112;11.662;2023-04-24T14:41:01;17.70;74.90
31379;DHT22;61664;48.112;11.662;2023-04-24T14:43:38;18.10;74.90
31379;DHT22;61664;48.112;11.662;2023-04-24T14:46:05;18.50;74.70
31379;DHT22;61664;48.112;11.662;2023-04-24T14:48:32;19.00;75.50
31379;DHT22;61664;48.112;11.662;2023-04-24T14:50:59;19.40;70.60
31379;DHT22;61664;48.112;11.662;2023-04-24T14:53:26;19.60;66.50
31379;DHT22;61664;48.112;11.662;2023-04-24T14:55:53;19.50;59.70
31379;DHT22;61664;48.112;11.662;2023-04-24T14:58:20;19.40;61.00
31379;DHT22;61664;48.112;11.662;2023-04-24T15:00:48;19.20;59.50
31379;DHT22;61664;48.112;11.662;2023-04-24T15:03:18;19.00;58.20
31379;DHT22;61664;48.112;11.662;2023-04-24T15:05:46;18.70;59.90
31379;DHT22;61664;48.112;11.662;2023-04-24T15:08:13;18.50;61.40
31379;DHT22;61664;48.112;11.662;2023-04-24T15:10:40;18.40;60.70
31379;DHT22;61664;48.112;11.662;2023-04-24T15:13:07;18.30;61.60
31379;DHT22;61664;48.112;11.662;2023-04-24T15:15:34;18.30;62.70
31379;DHT22;61664;48.112;11.662;2023-04-24T15:18:01;18.60;64.20
31379;DHT22;61664;48.112;11.662;2023-04-24T15:20:28;18.70;62.50
31379;DHT22;61664;48.112;11.662;2023-04-24T15:22:55;18.70;58.70
31379;DHT22;61664;48.112;11.662;2023-04-24T15:25:22;18.60;58.60
31379;DHT22;61664;48.112;11.662;2023-04-24T15:27:49;18.50;59.00
31379;DHT22;61664;48.112;11.662;2023-04-24T15:30:16;18.40;58.90